Time;durP1;ratioP1;P1;durP2;ratioP2;P2;SDS_P1;SDS_P2;PMS_P1;PMS_P2;Temp;Humidity;BMP_temperature;BMP_pressure;BME280_temperature;BME280_humidity;BME280_pressure;Samples;Min_cycle;Max_cycle;Signal;HPM_P1;HPM_P2
2023/02/08 00:01:32;;;;;;;29.75;16.65;;;;;;;-0.41;100.00;104012.09;5058177;28;20028;-68
2023/02/08 00:03:57;;;;;;;36.47;16.55;;;;;;;-0.34;100.00;104013.34;5067925;28;20029;-68
2023/02/08 00:06:23;;;;;;;30.65;16.50;;;;;;;-0.40;100.00;104008.69;5067209;28;20243;-67
2023/02/08 00:08:48;;;;;;;28.55;16.48;;;;;;;-0.46;100.00;104013.47;5068249;28;20082;-69
2023/02/08 00:11:13;;;;;;;33.05;17.20;;;;;;;-0.39;100.00;104009.59;5068739;28;20494;-65
2023/02/08 00:13:40;;;;;;;33.85;17.02;;;;;;;-0.40;100.00;104012.97;5067264;28;20040;-68
2023/02/08 00:16:06;;;;;;;34.55;17.63;;;;;;;-0.44;100.00;104017.06;5066932;28;20028;-64
2023/02/08 00:18:32;;;;;;;33.45;17.70;;;;;;;-0.54;100.00;104010.38;5068169;28;20646;-68
2023/02/08 00:20:57;;;;;;;38.22;17.20;;;;;;;-0.56;100.00;104000.75;5068658;28;20025;-68
2023/02/08 00:23:24;;;;;;;31.33;17.30;;;;;;;-0.57;100.00;103992.06;5067745;28;20029;-65
2023/02/08 00:25:49;;;;;;;33.75;16.65;;;;;;;-0.55;100.00;103993.06;5063835;28;20020;-66
2023/02/08 00:28:16;;;;;;;30.52;16.83;;;;;;;-0.53;100.00;103990.56;5048738;28;20318;-67
2023/02/08 00:30:42;;;;;;;30.40;16.30;;;;;;;-0.59;100.00;103993.66;5050572;28;20071;-68
2023/02/08 00:33:07;;;;;;;34.05;16.77;;;;;;;-0.63;100.00;103994.28;5068513;28;20044;-68
2023/02/08 00:35:33;;;;;;;36.33;17.58;;;;;;;-0.62;100.00;103989.97;5053060;28;20068;-68
2023/02/08 00:37:58;;;;;;;33.65;17.05;;;;;;;-0.62;100.00;103989.97;5051394;28;20025;-67
2023/02/08 00:40:24;;;;;;;30.20;16.27;;;;;;;-0.65;100.00;103982.91;5049200;28;20033;-65
2023/02/08 00:42:49;;;;;;;36.15;18.30;;;;;;;-0.66;100.00;103983.72;5066120;28;20028;-71
2023/02/08 00:45:15;;;;;;;33.95;17.08;;;;;;;-0.68;100.00;103975.84;5074057;28;20491;-64
2023/02/08 00:47:40;;;;;;;36.03;17.77;;;;;;;-0.64;100.00;103979.53;5074271;28;20036;-63
2023/02/08 00:50:06;;;;;;;32.65;18.23;;;;;;;-0.62;100.00;103971.84;5073320;28;20518;-68
2023/02/08 00:52:31;;;;;;;34.05;17.75;;;;;;;-0.55;100.00;103967.16;5068556;28;20024;-69
2023/02/08 00:54:56;;;;;;;28.40;16.35;;;;;;;-0.57;100.00;103973.91;5069543;28;20373;-66
2023/02/08 00:57:22;;;;;;;34.67;17.27;;;;;;;-0.59;100.00;103980.72;5068084;28;20028;-68
2023/02/08 00:59:47;;;;;;;31.60;17.92;;;;;;;-0.61;100.00;103973.66;5069619;28;20105;-68
2023/02/08 01:02:13;;;;;;;34.22;17.38;;;;;;;-0.60;100.00;103976.31;5068757;28;20158;-70
2023/02/08 01:04:38;;;;;;;29.50;16.17;;;;;;;-0.57;100.00;103973.03;5068159;28;20097;-67
2023/02/08 01:07:04;;;;;;;36.35;17.20;;;;;;;-0.55;100.00;103981.78;5067531;28;20040;-70
2023/02/08 01:09:30;;;;;;;30.08;16.67;;;;;;;-0.62;100.00;103980.53;5068264;28;20095;-70
2023/02/08 01:11:55;;;;;;;34.83;17.13;;;;;;;-0.61;100.00;103987.47;5068500;28;20021;-61
2023/02/08 01:14:21;;;;;;;26.63;15.60;;;;;;;-0.67;100.00;103985.41;5068462;28;20025;-65
2023/02/08 01:16:46;;;;;;;33.25;17.20;;;;;;;-0.69;100.00;103986.13;5068147;28;20031;-69
2023/02/08 01:19:11;;;;;;;31.77;17.30;;;;;;;-0.73;100.00;103982.41;5069229;28;20052;-68
2023/02/08 01:21:39;;;;;;;28.65;16.70;;;;;;;-0.80;100.00;103986.31;5067466;28;20047;-68
2023/02/08 01:24:04;;;;;;;34.10;18.15;;;;;;;-0.77;100.00;103989.13;5067224;28;20043;-68
2023/02/08 01:26:30;;;;;;;28.92;16.45;;;;;;;-0.75;100.00;103988.31;5068175;28;20024;-66
2023/02/08 01:28:56;;;;;;;37.13;17.27;;;;;;;-0.80;100.00;103980.25;5067836;28;20494;-70
2023/02/08 01:31:30;;;;;;;30.73;16.17;;;;;;;-0.86;100.00;103978.16;5058056;28;20052;-66
2023/02/08 01:33:56;;;;;;;25.50;14.48;;;;;;;-0.86;100.00;103978.16;5046752;28;20049;-63
2023/02/08 01:36:21;;;;;;;30.35;16.67;;;;;;;-0.84;100.00;103976.53;5046340;28;20104;-65
2023/02/08 01:38:47;;;;;;;31.38;16.17;;;;;;;-0.81;100.00;103978.44;5046596;28;20108;-69
2023/02/08 01:41:18;;;;;;;30.30;16.13;;;;;;;-0.80;100.00;103982.81;5047705;28;20044;-68
2023/02/08 01:44:00;;;;;;;31.52;16.92;;;;;;;-0.84;100.00;103980.84;5047016;28;20039;-71
2023/02/08 01:46:26;;;;;;;31.65;18.13;;;;;;;-0.76;100.00;103974.44;5047100;28;20036;-64
2023/02/08 01:48:52;;;;;;;30.52;17.02;;;;;;;-0.79;100.00;103971.66;5047094;28;20399;-61
2023/02/08 01:51:20;;;;;;;30.67;16.80;;;;;;;-0.89;100.00;103970.19;5046264;28;20485;-67
2023/02/08 01:53:48;;;;;;;32.90;16.85;;;;;;;-0.90;100.00;103974.47;5045077;28;20037;-64
2023/02/08 01:56:19;;;;;;;27.08;16.00;;;;;;;-0.85;100.00;103967.00;5046904;28;20040;-67
2023/02/08 01:58:50;;;;;;;29.25;16.95;;;;;;;-0.83;100.00;103962.81;5049424;28;20072;-65
2023/02/08 02:01:16;;;;;;;30.83;17.15;;;;;;;-0.87;100.00;103968.59;5049168;28;20020;-62
2023/02/08 02:03:41;;;;;;;32.13;17.55;;;;;;;-0.85;100.00;103958.34;5050669;28;20029;-66
2023/02/08 02:06:14;;;;;;;30.20;17.58;;;;;;;-0.93;100.00;103963.03;5050620;28;20079;-69
2023/02/08 02:08:51;;;;;;;29.67;16.58;;;;;;;-0.90;100.00;103968.41;5048752;28;20434;-67
2023/02/08 02:11:17;;;;;;;27.30;16.58;;;;;;;-0.94;100.00;103963.78;5051105;28;20028;-67
2023/02/08 02:13:42;;;;;;;34.05;16.70;;;;;;;-0.98;100.00;103967.00;5050068;28;20468;-69
2023/02/08 02:16:08;;;;;;;24.45;15.30;;;;;;;-0.99;100.00;103972.97;5050362;28;20029;-64
2023/02/08 02:18:34;;;;;;;32.22;17.85;;;;;;;-0.98;100.00;103967.00;5049517;28;20467;-66
2023/02/08 02:21:30;;;;;;;33.33;17.35;;;;;;;-0.98;100.00;103959.22;5050174;28;20027;-68
2023/02/08 02:24:14;;;;;;;35.35;17.25;;;;;;;-1.00;100.00;103955.66;5048969;28;20037;-65
2023/02/08 02:26:48;;;;;;;34.30;16.33;;;;;;;-1.03;100.00;103949.47;5048666;28;20025;-70
2023/02/08 02:29:22;;;;;;;34.42;17.77;;;;;;;-1.06;100.00;103946.69;5050403;28;20121;-70
2023/02/08 02:32:02;;;;;;;32.47;17.27;;;;;;;-1.05;100.00;103948.47;5050865;28;20053;-65
2023/02/08 02:34:56;;;;;;;29.33;17.08;;;;;;;-1.10;100.00;103946.38;5049910;28;20053;-68
2023/02/08 02:37:56;;;;;;;29.92;16.77;;;;;;;-1.11;100.00;103942.91;5047980;28;20392;-63
2023/02/08 02:40:52;;;;;;;32.90;16.52;;;;;;;-1.26;100.00;103945.41;5049820;28;20420;-61
2023/02/08 02:43:40;;;;;;;30.42;17.05;;;;;;;-1.29;100.00;103952.97;5049225;28;20048;-69
2023/02/08 02:46:26;;;;;;;24.98;15.30;;;;;;;-1.35;100.00;103947.38;5049188;28;20412;-59
2023/02/08 02:49:00;;;;;;;33.90;16.13;;;;;;;-1.37;100.00;103949.84;5049338;28;20431;-62
2023/02/08 02:51:27;;;;;;;32.70;17.33;;;;;;;-1.42;100.00;103951.22;5049463;28;20021;-69
2023/02/08 02:54:06;;;;;;;32.08;17.33;;;;;;;-1.48;100.00;103943.09;5049298;28;20032;-68
2023/02/08 02:56:36;;;;;;;31.95;16.08;;;;;;;-1.52;100.00;103939.38;5049388;28;20387;-64
2023/02/08 02:59:08;;;;;;;33.15;17.65;;;;;;;-1.56;100.00;103947.72;5049901;28;20100;-67
2023/02/08 03:01:34;;;;;;;33.03;16.60;;;;;;;-1.57;100.00;103945.91;5054134;28;20028;-69
2023/02/08 03:03:59;;;;;;;30.25;16.83;;;;;;;-1.60;100.00;103936.28;5069546;28;20162;-68
2023/02/08 03:06:45;;;;;;;29.80;16.77;;;;;;;-1.61;100.00;103942.25;5067983;28;20450;-68
2023/02/08 03:09:28;;;;;;;32.50;17.63;;;;;;;-1.59;100.00;103943.25;5067086;28;20032;-67
2023/02/08 03:12:16;;;;;;;28.27;15.68;;;;;;;-1.62;100.00;103937.88;5069708;28;20037;-61
2023/02/08 03:14:44;;;;;;;29.60;15.48;;;;;;;-1.65;100.00;103937.66;5069842;28;20713;-66
2023/02/08 03:17:12;;;;;;;29.13;17.02;;;;;;;-1.61;100.00;103939.66;5069547;28;20034;-66
2023/02/08 03:19:37;;;;;;;30.58;16.40;;;;;;;-1.65;100.00;103929.91;5069408;28;20028;-66
2023/02/08 03:22:12;;;;;;;30.15;17.63;;;;;;;-1.66;100.00;103929.00;5068523;28;20027;-63
2023/02/08 03:24:56;;;;;;;32.80;16.92;;;;;;;-1.66;100.00;103925.50;5066401;28;20068;-66
2023/02/08 03:27:32;;;;;;;29.20;15.57;;;;;;;-1.66;100.00;103931.59;5067498;28;20082;-63
2023/02/08 03:30:19;;;;;;;28.63;16.17;;;;;;;-1.65;100.00;103929.91;5067177;28;20367;-67
2023/02/08 03:32:55;;;;;;;36.47;16.75;;;;;;;-1.65;100.00;103932.50;5067436;28;20057;-69
2023/02/08 03:35:43;;;;;;;29.55;17.38;;;;;;;-1.62;100.00;103924.03;5068732;28;20048;-65
2023/02/08 03:38:13;;;;;;;28.98;17.30;;;;;;;-1.63;100.00;103924.84;5066084;28;20033;-69
2023/02/08 03:40:41;;;;;;;31.95;17.58;;;;;;;-1.63;100.00;103923.13;5066895;28;20062;-70
2023/02/08 03:43:11;;;;;;;26.77;16.45;;;;;;;-1.56;100.00;103927.91;5068517;28;20020;-69
2023/02/08 03:45:52;;;;;;;33.00;17.55;;;;;;;-1.61;100.00;103911.22;5068498;28;20526;-70
2023/02/08 03:48:19;;;;;;;34.25;16.90;;;;;;;-1.65;100.00;103922.16;5068150;28;20587;-72
2023/02/08 03:50:48;;;;;;;27.08;16.50;;;;;;;-1.65;100.00;103912.69;5067143;28;20660;-65
2023/02/08 03:53:16;;;;;;;35.85;16.70;;;;;;;-1.67;100.00;103918.56;5058754;28;20036;-63
2023/02/08 03:55:42;;;;;;;31.95;17.80;;;;;;;-1.56;100.00;103927.03;5046455;28;20025;-67
2023/02/08 03:58:42;;;;;;;29.52;17.23;;;;;;;-1.61;100.00;103926.72;5047988;28;20025;-68
2023/02/08 04:01:15;;;;;;;31.13;17.65;;;;;;;-1.62;100.00;103917.19;5051085;28;20032;-67
2023/02/08 04:03:40;;;;;;;32.22;17.90;;;;;;;-1.68;100.00;103922.81;5084129;28;20113;-66
2023/02/08 04:06:06;;;;;;;33.17;16.95;;;;;;;-1.62;100.00;103926.63;5066701;28;20119;-67
2023/02/08 04:08:31;;;;;;;28.17;17.48;;;;;;;-1.61;100.00;103921.56;5065671;28;20472;-69
2023/02/08 04:10:57;;;;;;;31.52;17.33;;;;;;;-1.62;100.00;103924.94;5068251;28;20647;-72
2023/02/08 04:13:22;;;;;;;30.15;17.65;;;;;;;-1.63;100.00;103927.44;5068016;28;20086;-64
2023/02/08 04:15:47;;;;;;;31.35;17.73;;;;;;;-1.56;100.00;103935.69;5083439;28;20496;-67
2023/02/08 04:18:13;;;;;;;32.80;17.15;;;;;;;-1.53;100.00;103924.66;5068437;28;20024;-69
2023/02/08 04:20:38;;;;;;;34.40;17.75;;;;;;;-1.60;100.00;103925.06;5066728;28;20024;-68
2023/02/08 04:23:03;;;;;;;32.53;17.33;;;;;;;-1.56;100.00;103930.50;5066683;28;20036;-68
2023/02/08 04:25:29;;;;;;;31.92;17.30;;;;;;;-1.61;100.00;103918.97;5067905;28;20487;-69
2023/02/08 04:27:54;;;;;;;28.48;16.35;;;;;;;-1.64;100.00;103911.00;5067831;28;20372;-68
2023/02/08 04:30:19;;;;;;;27.35;16.45;;;;;;;-1.63;100.00;103915.38;5068117;28;20032;-63
2023/02/08 04:32:45;;;;;;;28.63;16.88;;;;;;;-1.64;100.00;103918.78;5067607;28;20177;-66
2023/02/08 04:35:10;;;;;;;27.25;16.98;;;;;;;-1.66;100.00;103920.34;5067691;28;20033;-68
2023/02/08 04:37:35;;;;;;;27.25;16.20;;;;;;;-1.65;100.00;103917.00;5066867;28;20518;-69
2023/02/08 04:40:01;;;;;;;29.70;17.27;;;;;;;-1.65;100.00;103912.69;5067201;28;20027;-62
2023/02/08 04:42:26;;;;;;;29.92;15.57;;;;;;;-1.67;100.00;103918.56;5068105;28;20554;-67
2023/02/08 04:44:52;;;;;;;26.65;16.10;;;;;;;-1.72;100.00;103915.66;5068047;28;20024;-64
2023/02/08 04:47:17;;;;;;;30.63;17.20;;;;;;;-1.76;100.00;103912.75;5067590;28;20031;-69
2023/02/08 04:49:42;;;;;;;33.13;16.67;;;;;;;-1.80;100.00;103917.72;5067280;28;20023;-65
2023/02/08 04:52:08;;;;;;;24.52;15.75;;;;;;;-1.82;100.00;103911.56;5070607;28;20033;-65
2023/02/08 04:54:33;;;;;;;31.98;16.08;;;;;;;-1.82;100.00;103906.41;5075982;28;20037;-69
2023/02/08 04:56:58;;;;;;;29.60;16.13;;;;;;;-1.85;100.00;103901.03;5074737;28;20021;-70
2023/02/08 04:59:24;;;;;;;35.50;17.23;;;;;;;-1.83;100.00;103896.88;5068856;28;20419;-66
2023/02/08 05:01:49;;;;;;;32.13;16.70;;;;;;;-1.84;100.00;103902.81;5072724;28;20055;-68
2023/02/08 05:04:14;;;;;;;26.10;15.77;;;;;;;-1.82;100.00;103897.75;5077676;28;20024;-69
2023/02/08 05:06:40;;;;;;;28.30;16.02;;;;;;;-1.84;100.00;103900.22;5060084;28;20048;-68
2023/02/08 05:09:07;;;;;;;34.83;16.00;;;;;;;-1.80;100.00;103896.16;5051016;28;20107;-68
2023/02/08 05:11:33;;;;;;;28.77;17.58;;;;;;;-1.79;100.00;103898.84;5053196;28;20025;-65
2023/02/08 05:13:58;;;;;;;38.72;18.02;;;;;;;-1.74;100.00;103895.69;5068724;28;20097;-69
2023/02/08 05:16:24;;;;;;;25.73;16.50;;;;;;;-1.67;100.00;103897.88;5062230;28;20059;-70
2023/02/08 05:18:49;;;;;;;28.60;17.17;;;;;;;-1.61;100.00;103894.78;5052287;28;20032;-71
2023/02/08 05:21:14;;;;;;;28.63;17.45;;;;;;;-1.54;100.00;103897.91;5066908;28;20047;-66
2023/02/08 05:23:40;;;;;;;27.83;16.92;;;;;;;-1.55;100.00;103896.13;5060736;28;20021;-70
2023/02/08 05:26:06;;;;;;;28.77;16.83;;;;;;;-1.54;100.00;103891.81;5067013;28;20036;-68
2023/02/08 05:28:32;;;;;;;27.05;15.63;;;;;;;-1.53;100.00;103889.34;5066962;28;20084;-70
2023/02/08 05:30:57;;;;;;;28.92;16.00;;;;;;;-1.55;100.00;103896.13;5061882;28;20029;-65
2023/02/08 05:33:22;;;;;;;29.70;16.45;;;;;;;-1.58;100.00;103898.50;5065754;28;20075;-67
2023/02/08 05:35:48;;;;;;;25.52;15.82;;;;;;;-1.56;100.00;103896.88;5065477;28;20052;-70
2023/02/08 05:38:13;;;;;;;27.58;15.30;;;;;;;-1.62;100.00;103893.00;5065729;28;20427;-67
2023/02/08 05:40:38;;;;;;;25.80;16.13;;;;;;;-1.66;100.00;103889.31;5066198;28;20017;-65
2023/02/08 05:43:04;;;;;;;33.25;16.00;;;;;;;-1.65;100.00;103888.53;5064166;28;20061;-69
2023/02/08 05:45:29;;;;;;;31.38;16.00;;;;;;;-1.67;100.00;103878.09;5066135;28;20054;-69
2023/02/08 05:47:54;;;;;;;31.40;16.98;;;;;;;-1.65;100.00;103880.78;5063495;28;20028;-67
2023/02/08 05:50:20;;;;;;;26.85;16.17;;;;;;;-1.63;100.00;103874.00;5066413;28;20048;-63
2023/02/08 05:52:45;;;;;;;29.10;16.50;;;;;;;-1.63;100.00;103884.34;5064858;28;20048;-69
2023/02/08 05:55:10;;;;;;;24.17;14.93;;;;;;;-1.67;100.00;103870.34;5066001;28;20052;-68
2023/02/08 05:57:36;;;;;;;28.23;16.02;;;;;;;-1.68;100.00;103873.69;5063961;28;20056;-64
2023/02/08 06:00:04;;;;;;;26.77;15.43;;;;;;;-1.65;100.00;103867.84;5067108;28;20028;-69
2023/02/08 06:02:31;;;;;;;26.70;15.77;;;;;;;-1.59;100.00;103868.25;5046092;28;20087;-59
2023/02/08 06:04:56;;;;;;;32.88;17.70;;;;;;;-1.55;100.00;103862.50;5045764;28;20032;-69
2023/02/08 06:07:22;;;;;;;27.02;15.18;;;;;;;-1.47;100.00;103864.69;5045670;28;20029;-66
2023/02/08 06:09:47;;;;;;;25.08;14.90;;;;;;;-1.43;100.00;103864.06;5046335;28;20071;-66
2023/02/08 06:12:12;;;;;;;26.75;14.88;;;;;;;-1.48;100.00;103863.78;5046763;28;20047;-73
2023/02/08 06:14:38;;;;;;;25.05;14.75;;;;;;;-1.49;100.00;103871.44;5046509;28;20017;-70
2023/02/08 06:17:03;;;;;;;29.63;14.55;;;;;;;-1.49;100.00;103872.34;5046553;28;20196;-67
2023/02/08 06:19:28;;;;;;;27.40;15.45;;;;;;;-1.55;100.00;103874.50;5045277;28;20753;-64
2023/02/08 06:21:54;;;;;;;28.58;15.45;;;;;;;-1.51;100.00;103878.22;5066217;28;20037;-69
2023/02/08 06:24:19;;;;;;;25.38;15.75;;;;;;;-1.54;100.00;103871.13;5066574;28;20386;-68
2023/02/08 06:26:45;;;;;;;28.00;15.25;;;;;;;-1.61;100.00;103875.00;5066136;28;20112;-66
2023/02/08 06:29:10;;;;;;;24.92;14.38;;;;;;;-1.63;100.00;103875.72;5067407;28;20115;-69
2023/02/08 06:31:35;;;;;;;24.42;14.60;;;;;;;-1.64;100.00;103882.56;5066550;28;20703;-69
2023/02/08 06:34:01;;;;;;;25.40;14.32;;;;;;;-1.61;100.00;103881.88;5066843;28;20052;-68
2023/02/08 06:36:26;;;;;;;24.00;14.90;;;;;;;-1.63;100.00;103889.50;5066169;28;20458;-66
2023/02/08 06:38:52;;;;;;;23.08;13.85;;;;;;;-1.63;100.00;103889.50;5066247;28;20040;-65
2023/02/08 06:41:17;;;;;;;24.73;14.25;;;;;;;-1.65;100.00;103893.72;5059468;28;20344;-71
2023/02/08 06:43:42;;;;;;;24.63;13.60;;;;;;;-1.73;100.00;103893.19;5054271;28;20032;-62
2023/02/08 06:46:08;;;;;;;25.65;14.55;;;;;;;-1.69;100.00;103894.28;5054493;28;20111;-66
2023/02/08 06:48:34;;;;;;;28.35;15.18;;;;;;;-1.66;100.00;103895.38;5068428;28;20239;-70
2023/02/08 06:51:00;;;;;;;25.50;15.10;;;;;;;-1.63;100.00;103886.94;5061503;28;20048;-71
2023/02/08 06:53:25;;;;;;;23.35;14.25;;;;;;;-1.66;100.00;103881.56;5057011;28;20471;-70
2023/02/08 06:55:51;;;;;;;27.73;16.48;;;;;;;-1.66;100.00;103884.13;5060441;28;20032;-66
2023/02/08 06:58:16;;;;;;;26.50;14.30;;;;;;;-1.58;100.00;103874.31;5058257;28;20032;-69
2023/02/08 07:00:44;;;;;;;27.88;14.95;;;;;;;-1.57;100.00;103874.41;5056710;28;20066;-68
2023/02/08 07:03:10;;;;;;;24.80;13.98;;;;;;;-1.55;100.00;103872.84;5058857;28;20013;-71
2023/02/08 07:05:36;;;;;;;24.98;14.35;;;;;;;-1.51;100.00;103867.88;5054925;28;20025;-67
2023/02/08 07:08:02;;;;;;;23.50;13.73;;;;;;;-1.44;100.00;103867.47;5059838;28;20119;-66
2023/02/08 07:10:27;;;;;;;26.15;14.55;;;;;;;-1.42;100.00;103877.09;5057920;28;20592;-73
2023/02/08 07:12:52;;;;;;;21.48;12.88;;;;;;;-1.42;100.00;103873.63;5056752;28;20021;-68
2023/02/08 07:15:18;;;;;;;21.27;13.20;;;;;;;-1.45;100.00;103874.31;5065427;28;20748;-71
2023/02/08 07:17:43;;;;;;;27.05;14.35;;;;;;;-1.45;100.00;103879.50;5058391;28;20486;-69
2023/02/08 07:20:10;;;;;;;23.35;14.35;;;;;;;-1.52;100.00;103874.72;5058783;28;20208;-69
2023/02/08 07:22:36;;;;;;;23.08;13.38;;;;;;;-1.45;100.00;103870.81;5055873;28;20069;-71
2023/02/08 07:25:01;;;;;;;21.83;12.98;;;;;;;-1.44;100.00;103868.34;5057507;28;20028;-70
2023/02/08 07:27:26;;;;;;;24.63;14.18;;;;;;;-1.42;100.00;103882.28;5059277;28;20024;-64
2023/02/08 07:29:52;;;;;;;25.70;14.40;;;;;;;-1.40;100.00;103877.22;5067817;28;20034;-68
2023/02/08 07:32:17;;;;;;;21.77;13.20;;;;;;;-1.33;100.00;103879.41;5067997;28;20035;-71
2023/02/08 07:34:42;;;;;;;25.38;13.98;;;;;;;-1.35;100.00;103877.50;5067235;28;20498;-68
2023/02/08 07:37:08;;;;;;;25.50;13.32;;;;;;;-1.32;100.00;103878.59;5068624;28;20422;-64
2023/02/08 07:39:33;;;;;;;25.27;14.25;;;;;;;-1.31;100.00;103874.31;5068068;28;20414;-66
2023/02/08 07:41:58;;;;;;;24.80;13.75;;;;;;;-1.27;100.00;103874.63;5055854;28;20040;-71
2023/02/08 07:44:24;;;;;;;22.10;13.38;;;;;;;-1.22;100.00;103872.34;5063222;28;20134;-67
2023/02/08 07:46:49;;;;;;;24.55;13.27;;;;;;;-1.17;100.00;103862.28;5061032;28;20043;-66
2023/02/08 07:49:15;;;;;;;20.88;12.68;;;;;;;-1.14;100.00;103867.66;5047177;28;20032;-69
2023/02/08 07:51:40;;;;;;;25.02;13.02;;;;;;;-1.06;100.00;103862.94;5057757;28;20087;-70
2023/02/08 07:54:05;;;;;;;23.15;13.40;;;;;;;-1.02;100.00;103875.31;5046418;28;20468;-59
2023/02/08 07:56:31;;;;;;;28.80;12.73;;;;;;;-0.99;100.00;103872.00;5062401;28;20020;-69
2023/02/08 07:58:56;;;;;;;25.50;13.40;;;;;;;-0.97;100.00;103867.84;5067132;28;20099;-70
2023/02/08 08:01:21;;;;;;;25.05;13.52;;;;;;;-0.93;100.00;103864.66;5067340;28;20534;-62
2023/02/08 08:03:48;;;;;;;26.70;13.00;;;;;;;-0.83;100.00;103861.84;5067231;28;20032;-60
2023/02/08 08:06:13;;;;;;;24.73;12.68;;;;;;;-0.80;100.00;103869.78;5066260;28;20032;-66
2023/02/08 08:08:38;;;;;;;24.23;13.10;;;;;;;-0.86;100.00;103865.91;5063655;28;20577;-66
2023/02/08 08:11:05;;;;;;;22.05;12.10;;;;;;;-0.81;100.00;103864.53;5055668;28;20160;-66
2023/02/08 08:13:30;;;;;;;24.63;12.60;;;;;;;-0.70;100.00;103865.16;5057403;28;20356;-65
2023/02/08 08:15:56;;;;;;;22.23;11.77;;;;;;;-0.74;100.00;103868.38;5057040;28;20021;-64
2023/02/08 08:18:21;;;;;;;20.70;12.52;;;;;;;-0.72;100.00;103856.44;5054349;28;20039;-60
2023/02/08 08:20:46;;;;;;;19.40;11.80;;;;;;;-0.63;100.00;103862.19;5057458;28;20051;-69
2023/02/08 08:23:12;;;;;;;23.55;12.02;;;;;;;-0.50;100.00;103871.59;5057941;28;20058;-68
2023/02/08 08:25:37;;;;;;;20.27;11.20;;;;;;;-0.52;100.00;103866.31;5066945;28;20489;-64
2023/02/08 08:28:03;;;;;;;23.55;11.88;;;;;;;-0.45;100.00;103867.56;5061029;28;20048;-67
2023/02/08 08:30:28;;;;;;;17.83;11.95;;;;;;;-0.40;100.00;103873.03;5059914;28;20037;-68
2023/02/08 08:32:54;;;;;;;20.73;11.85;;;;;;;-0.35;100.00;103873.31;5062643;28;20045;-68
2023/02/08 08:35:19;;;;;;;22.45;12.00;;;;;;;-0.28;100.00;103868.63;5066155;28;20036;-70
2023/02/08 08:37:45;;;;;;;21.88;12.52;;;;;;;-0.31;100.00;103873.59;5070729;28;20020;-69
2023/02/08 08:40:10;;;;;;;22.73;12.68;;;;;;;-0.20;100.00;103870.75;5055933;28;20028;-66
2023/02/08 08:42:38;;;;;;;19.63;12.13;;;;;;;-0.17;100.00;103865.78;5057808;28;20052;-69
2023/02/08 08:45:04;;;;;;;22.52;12.68;;;;;;;-0.14;100.00;103860.78;5060157;28;20021;-67
2023/02/08 08:47:29;;;;;;;26.27;13.32;;;;;;;-0.11;100.00;103855.78;5060903;28;20032;-69
2023/02/08 08:49:55;;;;;;;23.90;12.95;;;;;;;-0.23;100.00;103847.25;5057857;28;20097;-69
2023/02/08 08:52:20;;;;;;;23.58;13.63;;;;;;;-0.16;100.00;103854.59;5058452;28;20127;-63
2023/02/08 08:54:45;;;;;;;21.00;12.07;;;;;;;-0.09;100.00;103848.09;5060109;28;20048;-70
2023/02/08 08:57:11;;;;;;;22.23;12.32;;;;;;;-0.08;100.00;103852.47;5055283;28;20072;-70
2023/02/08 08:59:36;;;;;;;22.70;11.85;;;;;;;0.03;100.00;103848.78;5055837;28;20094;-67
2023/02/08 09:02:01;;;;;;;24.17;11.73;;;;;;;0.10;100.00;103845.78;5061387;28;20070;-67
2023/02/08 09:04:27;;;;;;;21.15;11.50;;;;;;;0.25;100.00;103856.13;5055347;28;20028;-64
2023/02/08 09:06:52;;;;;;;18.23;11.38;;;;;;;0.30;100.00;103852.94;5055228;28;20348;-69
2023/02/08 09:09:18;;;;;;;20.55;11.40;;;;;;;0.36;100.00;103853.28;5061710;28;20423;-68
2023/02/08 09:11:44;;;;;;;18.00;11.32;;;;;;;0.36;100.00;103853.28;5066698;28;20107;-68
2023/02/08 09:14:10;;;;;;;22.20;11.85;;;;;;;0.31;100.00;103862.50;5057355;28;20103;-71
2023/02/08 09:16:35;;;;;;;18.52;12.10;;;;;;;0.46;100.00;103855.59;5059252;28;20056;-69
2023/02/08 09:19:02;;;;;;;21.02;11.35;;;;;;;0.56;100.00;103856.09;5061170;28;20021;-66
2023/02/08 09:21:28;;;;;;;19.58;11.73;;;;;;;0.61;100.00;103854.69;5057889;28;20028;-68
2023/02/08 09:23:53;;;;;;;20.77;12.23;;;;;;;0.66;100.00;103858.41;5063791;28;20394;-72
2023/02/08 09:26:19;;;;;;;25.55;11.98;;;;;;;0.73;100.00;103850.16;5069841;28;20115;-61
2023/02/08 09:28:45;;;;;;;18.77;11.90;;;;;;;0.75;100.00;103853.75;5057660;28;20038;-67
2023/02/08 09:31:16;;;;;;;19.48;12.00;;;;;;;0.87;100.00;103857.81;5060651;28;20460;-65
2023/02/08 09:33:42;;;;;;;20.85;11.32;;;;;;;0.95;100.00;103859.16;5062187;28;20040;-64
2023/02/08 09:36:08;;;;;;;21.42;11.93;;;;;;;0.96;100.00;103868.72;5063068;28;20093;-66
2023/02/08 09:38:33;;;;;;;25.25;12.20;;;;;;;1.05;100.00;103864.88;5055406;28;20495;-70
2023/02/08 09:41:07;;;;;;;23.52;11.85;;;;;;;1.13;100.00;103866.16;5064481;28;20028;-70
2023/02/08 09:43:56;;;;;;;17.88;11.32;;;;;;;1.24;100.00;103875.41;5061675;28;20036;-70
2023/02/08 09:46:23;;;;;;;;;;;;;;;1.30;100.00;103877.50;5063085;28;20068;-67
2023/02/08 09:48:50;;;;;;;16.83;10.50;;;;;;;1.29;100.00;103875.69;5051635;28;19917;-69
2023/02/08 09:51:29;;;;;;;20.65;11.50;;;;;;;1.41;100.00;103872.84;5046433;28;20032;-70
2023/02/08 09:54:02;;;;;;;17.80;11.75;;;;;;;1.51;100.00;103864.72;5053331;28;20055;-62
2023/02/08 09:56:30;;;;;;;20.10;11.65;;;;;;;1.56;100.00;103866.69;5055163;28;20466;-62
2023/02/08 09:58:56;;;;;;;17.95;11.55;;;;;;;1.61;100.00;103865.22;5052966;28;20025;-63
2023/02/08 10:01:34;;;;;;;20.20;11.35;;;;;;;1.61;100.00;103857.41;5054240;28;20052;-64
2023/02/08 10:04:12;;;;;;;20.55;11.95;;;;;;;1.63;100.00;103859.28;5053542;28;20025;-65
2023/02/08 10:06:37;;;;;;;19.73;11.98;;;;;;;1.73;100.00;103855.47;5047699;28;20060;-67
2023/02/08 10:09:12;;;;;;;16.95;10.18;;;;;;;1.89;100.00;103864.03;5063893;28;20555;-69
2023/02/08 10:11:43;;;;;;;19.33;11.27;;;;;;;1.96;100.00;103862.66;5064232;28;20027;-66
2023/02/08 10:14:21;;;;;;;18.52;10.93;;;;;;;2.04;100.00;103870.88;5047436;28;20070;-68
2023/02/08 10:17:04;;;;;;;22.25;12.18;;;;;;;2.07;100.00;103871.00;5046284;28;20044;-67
2023/02/08 10:19:48;;;;;;;16.73;10.98;;;;;;;2.06;100.00;103879.63;5049968;28;20036;-67
2023/02/08 10:22:39;;;;;;;17.83;10.90;;;;;;;2.11;100.00;103884.25;5049643;28;20433;-69
2023/02/08 10:25:33;;;;;;;23.85;11.50;;;;;;;2.25;100.00;103890.16;5066841;28;20037;-68
2023/02/08 10:28:25;;;;;;;18.38;11.02;;;;;;;2.31;100.00;103880.84;5068847;28;20036;-65
2023/02/08 10:31:23;;;;;;;16.42;10.73;;;;;;;2.39;100.00;103880.44;5067372;28;20024;-67
2023/02/08 10:34:07;;;;;;;21.90;11.45;;;;;;;2.48;99.91;103884.31;5052595;28;20483;-70
2023/02/08 10:36:35;;;;;;;15.27;10.05;;;;;;;2.62;99.94;103879.78;5068131;28;20051;-69
2023/02/08 10:39:01;;;;;;;17.10;10.35;;;;;;;2.77;99.17;103875.31;5067862;28;20033;-71
2023/02/08 10:41:32;;;;;;;15.15;9.93;;;;;;;2.73;97.62;103885.50;5068756;28;20089;-62
2023/02/08 10:44:04;;;;;;;17.02;10.57;;;;;;;2.83;97.15;103874.69;5066765;28;20021;-65
2023/02/08 10:46:43;;;;;;;16.73;10.20;;;;;;;2.95;97.62;103877.00;5068122;28;20383;-68
2023/02/08 10:49:17;;;;;;;17.17;10.73;;;;;;;3.01;97.25;103881.63;5067447;28;20475;-68
2023/02/08 10:51:45;;;;;;;16.83;10.90;;;;;;;3.02;97.10;103879.09;5057880;28;20036;-68
2023/02/08 10:54:14;;;;;;;19.35;10.57;;;;;;;3.15;96.80;103874.44;5057811;28;20467;-65
2023/02/08 10:56:46;;;;;;;;;;;;;;;3.21;96.58;103869.50;5059179;28;20539;-63
2023/02/08 10:59:46;;;;;;;18.75;11.15;;;;;;;3.12;96.83;103864.75;5058661;28;19916;-71
2023/02/08 11:02:25;;;;;;;16.42;9.85;;;;;;;3.18;96.75;103866.75;5056185;28;20048;-69
2023/02/08 11:05:14;;;;;;;15.07;11.00;;;;;;;3.33;97.33;103853.53;5057859;28;20048;-66
2023/02/08 11:07:40;;;;;;;19.13;11.18;;;;;;;3.36;97.45;103851.06;5058871;28;20024;-70
2023/02/08 11:10:18;;;;;;;15.25;11.23;;;;;;;3.56;96.73;103858.00;5060630;28;20403;-67
2023/02/08 11:13:14;;;;;;;18.83;10.60;;;;;;;3.53;95.71;103856.16;5058821;28;20060;-67